createdAt,value
2023-05-07T00:00:45.471Z,21.65
2023-05-07T00:03:14.324Z,21.75
2023-05-07T00:05:42.530Z,21.60
2023-05-07T00:08:10.011Z,21.75
2023-05-07T00:10:37.272Z,23.33
2023-05-07T00:13:04.532Z,23.60
2023-05-07T00:15:31.812Z,23.63
2023-05-07T00:18:00.504Z,22.85
2023-05-07T00:20:27.882Z,24.33
2023-05-07T00:22:55.522Z,23.30
2023-05-07T00:25:22.758Z,24.00
2023-05-07T00:27:49.944Z,23.40
2023-05-07T00:30:17.292Z,23.63
2023-05-07T00:32:46.633Z,21.88
2023-05-07T00:35:14.017Z,23.15
2023-05-07T00:37:41.544Z,22.02
2023-05-07T00:40:09.780Z,22.48
2023-05-07T00:42:37.815Z,21.88
2023-05-07T00:45:05.184Z,22.38
2023-05-07T00:47:32.827Z,23.80
2023-05-07T00:50:00.113Z,23.52
2023-05-07T00:52:27.892Z,23.80
2023-05-07T00:54:56.100Z,23.88
2023-05-07T00:57:23.667Z,22.27
2023-05-07T00:59:50.876Z,22.00
2023-05-07T01:02:18.524Z,22.83
2023-05-07T01:04:45.749Z,22.30
2023-05-07T01:07:13.287Z,23.48
2023-05-07T01:09:40.676Z,21.63
2023-05-07T01:12:08.713Z,22.80
2023-05-07T01:14:36.463Z,21.88
2023-05-07T01:17:03.706Z,23.00
2023-05-07T01:19:31.336Z,21.45
2023-05-07T01:22:03.523Z,24.15
2023-05-07T01:24:31.097Z,23.92
2023-05-07T01:26:58.312Z,24.05
2023-05-07T01:29:25.504Z,22.80
2023-05-07T01:31:53.988Z,22.42
2023-05-07T01:34:23.037Z,21.77
2023-05-07T01:36:50.603Z,21.95
2023-05-07T01:39:18.132Z,23.63
2023-05-07T01:41:45.454Z,24.05
2023-05-07T01:44:14.233Z,22.77
2023-05-07T01:46:41.484Z,22.55
2023-05-07T01:49:08.850Z,22.67
2023-05-07T01:51:36.367Z,23.77
2023-05-07T01:54:03.554Z,23.30
2023-05-07T01:56:31.425Z,23.20
2023-05-07T01:58:58.582Z,22.10
2023-05-07T02:01:26.059Z,24.27
2023-05-07T02:03:54.792Z,22.30
2023-05-07T02:06:22.171Z,21.52
2023-05-07T02:08:49.368Z,23.40
2023-05-07T02:11:16.493Z,24.33
2023-05-07T02:13:43.733Z,24.23
2023-05-07T02:16:11.860Z,25.73
2023-05-07T02:18:39.199Z,25.00
2023-05-07T02:21:06.369Z,24.30
2023-05-07T02:23:33.538Z,25.05
2023-05-07T02:26:00.755Z,26.08
2023-05-07T02:28:27.898Z,25.13
2023-05-07T02:30:55.701Z,24.90
2023-05-07T02:33:22.968Z,25.00
2023-05-07T02:35:50.224Z,25.75
2023-05-07T02:38:17.441Z,25.20
2023-05-07T02:40:44.708Z,27.27
2023-05-07T02:43:11.893Z,25.98
2023-05-07T02:45:39.304Z,25.33
2023-05-07T02:48:09.457Z,26.27
2023-05-07T02:50:36.765Z,27.13
2023-05-07T02:53:04.597Z,27.90
2023-05-07T02:55:32.360Z,27.52
2023-05-07T02:57:59.554Z,26.02
2023-05-07T03:00:26.824Z,28.15
2023-05-07T03:02:54.031Z,27.77
2023-05-07T03:05:21.289Z,25.83
2023-05-07T03:07:48.634Z,26.92
2023-05-07T03:10:16.151Z,25.70
2023-05-07T03:12:43.356Z,24.05
2023-05-07T03:15:11.609Z,24.80
2023-05-07T03:17:38.849Z,25.98
2023-05-07T03:20:06.464Z,24.73
2023-05-07T03:22:33.716Z,24.00
2023-05-07T03:25:01.044Z,26.65
2023-05-07T03:27:28.249Z,24.08
2023-05-07T03:29:55.431Z,24.67
2023-05-07T03:32:22.716Z,24.98
2023-05-07T03:34:50.039Z,24.95
2023-05-07T03:37:17.236Z,26.30
2023-05-07T03:39:44.443Z,24.48
2023-05-07T03:42:11.648Z,24.10
2023-05-07T03:44:38.784Z,24.52
2023-05-07T03:47:06.002Z,24.52
2023-05-07T03:49:33.167Z,22.80
2023-05-07T03:52:00.388Z,22.65
2023-05-07T03:54:27.586Z,24.20
2023-05-07T03:56:54.750Z,24.30
2023-05-07T03:59:22.079Z,23.27
2023-05-07T04:01:49.959Z,23.77
2023-05-07T04:04:17.456Z,21.63
2023-05-07T04:06:44.807Z,22.70
2023-05-07T04:09:12.018Z,23.48
2023-05-07T04:11:41.151Z,23.70
2023-05-07T04:14:08.449Z,23.23
2023-05-07T04:16:36.450Z,24.08
2023-05-07T04:19:03.683Z,24.80
2023-05-07T04:21:31.338Z,20.85
2023-05-07T04:23:58.802Z,22.42
2023-05-07T04:26:25.949Z,22.05
2023-05-07T04:28:53.083Z,22.40
2023-05-07T04:31:22.691Z,20.95
2023-05-07T04:33:50.048Z,21.98
2023-05-07T04:36:17.316Z,21.77
2023-05-07T04:38:44.448Z,22.05
2023-05-07T04:41:12.198Z,20.48
2023-05-07T04:43:39.567Z,21.20
2023-05-07T04:46:06.775Z,22.02
2023-05-07T04:48:34.046Z,21.00
2023-05-07T04:53:44.413Z,22.63
2023-05-07T04:56:12.000Z,20.35
2023-05-07T04:58:39.170Z,20.83
2023-05-07T05:01:06.345Z,19.90
2023-05-07T05:03:33.712Z,21.13
2023-05-07T05:06:01.539Z,20.90
2023-05-07T05:08:28.715Z,20.77
2023-05-07T05:10:55.856Z,19.73
2023-05-07T05:13:23.149Z,19.45
2023-05-07T05:15:50.494Z,20.15
2023-05-07T05:18:17.749Z,20.45
2023-05-07T05:20:45.183Z,19.52
2023-05-07T05:23:12.585Z,19.70
2023-05-07T05:25:41.252Z,18.80
2023-05-07T05:28:08.437Z,17.55
2023-05-07T05:30:35.648Z,18.88
2023-05-07T05:33:02.904Z,18.13
2023-05-07T05:35:31.835Z,17.65
2023-05-07T05:37:59.087Z,17.83
2023-05-07T05:40:26.327Z,17.13
2023-05-07T05:42:53.482Z,17.15
2023-05-07T05:45:20.940Z,17.52
2023-05-07T05:47:48.093Z,16.80
2023-05-07T05:50:15.280Z,17.55
2023-05-07T05:52:43.069Z,16.48
2023-05-07T05:55:10.498Z,16.95
2023-05-07T05:57:37.714Z,16.58
2023-05-07T06:00:06.240Z,17.17
2023-05-07T06:02:33.484Z,16.23
2023-05-07T06:05:00.835Z,15.95
2023-05-07T06:07:28.109Z,16.42
2023-05-07T06:09:56.365Z,15.90
2023-05-07T06:12:23.557Z,16.38
2023-05-07T06:14:50.867Z,16.10
2023-05-07T06:17:20.140Z,15.38
2023-05-07T06:19:48.686Z,15.27
2023-05-07T06:22:16.034Z,15.30
2023-05-07T06:24:43.306Z,15.88
2023-05-07T06:27:10.816Z,15.10
2023-05-07T06:29:38.051Z,15.15
2023-05-07T06:32:15.436Z,14.55
2023-05-07T06:34:42.643Z,14.57
2023-05-07T06:37:10.123Z,15.43
2023-05-07T06:39:37.353Z,13.60
2023-05-07T06:42:05.610Z,14.00
2023-05-07T06:44:32.969Z,13.38
2023-05-07T06:47:00.270Z,13.07
2023-05-07T06:49:27.447Z,13.70
2023-05-07T06:51:54.924Z,13.68
2023-05-07T06:54:24.451Z,13.52
2023-05-07T06:56:51.757Z,13.75
2023-05-07T06:59:23.189Z,13.52
2023-05-07T07:01:50.822Z,12.40
2023-05-07T07:04:18.086Z,12.25
2023-05-07T07:06:45.704Z,12.45
2023-05-07T07:09:13.094Z,11.63
2023-05-07T07:11:40.214Z,11.40
2023-05-07T07:14:07.463Z,12.82
2023-05-07T07:16:34.732Z,12.50
2023-05-07T07:19:01.989Z,12.23
2023-05-07T07:21:29.179Z,13.07
2023-05-07T07:23:56.421Z,11.45
2023-05-07T07:26:24.638Z,12.57
2023-05-07T07:28:51.812Z,14.23
2023-05-07T07:31:19.029Z,13.68
2023-05-07T07:33:46.490Z,18.15
2023-05-07T07:36:13.629Z,11.85
2023-05-07T07:38:40.913Z,12.02
2023-05-07T07:41:09.674Z,12.88
2023-05-07T07:43:36.933Z,28.75
2023-05-07T07:46:04.224Z,20.73
2023-05-07T07:48:31.430Z,13.52
2023-05-07T07:50:58.716Z,13.90
2023-05-07T07:53:26.323Z,14.43
2023-05-07T07:55:58.072Z,14.60
2023-05-07T07:58:26.679Z,13.50
2023-05-07T08:00:55.642Z,16.83
2023-05-07T08:03:23.212Z,16.23
2023-05-07T08:05:52.152Z,18.73
2023-05-07T08:08:19.327Z,16.38
2023-05-07T08:10:46.635Z,19.00
2023-05-07T08:13:13.888Z,16.70
2023-05-07T08:15:41.226Z,40.03
2023-05-07T08:18:08.640Z,20.33
2023-05-07T08:20:40.318Z,16.50
2023-05-07T08:23:08.286Z,17.27
2023-05-07T08:25:36.022Z,16.17
2023-05-07T08:28:04.525Z,18.05
2023-05-07T08:30:31.659Z,15.32
2023-05-07T08:32:58.891Z,20.77
2023-05-07T08:35:26.953Z,42.75
2023-05-07T08:37:54.380Z,15.48
2023-05-07T08:40:22.656Z,18.55
2023-05-07T08:42:51.939Z,15.27
2023-05-07T08:45:20.325Z,13.38
2023-05-07T08:47:54.118Z,13.40
2023-05-07T08:50:24.335Z,15.55
2023-05-07T08:52:51.722Z,14.00
2023-05-07T08:55:19.063Z,22.33
2023-05-07T08:57:46.474Z,29.92
2023-05-07T09:00:14.736Z,15.18
2023-05-07T09:02:42.796Z,15.57
2023-05-07T09:05:10.322Z,15.75
2023-05-07T09:07:45.440Z,13.95
2023-05-07T09:10:13.769Z,14.23
2023-05-07T09:12:42.122Z,13.88
2023-05-07T09:15:09.750Z,13.70
2023-05-07T09:17:37.699Z,13.80
2023-05-07T09:20:06.993Z,12.23
2023-05-07T09:22:35.517Z,12.35
2023-05-07T09:25:03.223Z,12.70
2023-05-07T09:27:30.558Z,13.07
2023-05-07T09:29:57.780Z,12.63
2023-05-07T09:32:26.892Z,12.82
2023-05-07T09:34:54.042Z,12.07
2023-05-07T09:37:21.546Z,12.32
2023-05-07T09:39:51.307Z,12.07
2023-05-07T09:42:25.039Z,11.98
2023-05-07T09:44:52.286Z,10.68
2023-05-07T09:47:21.053Z,11.63
2023-05-07T09:49:49.188Z,11.52
2023-05-07T09:52:16.808Z,12.32
2023-05-07T09:54:45.162Z,11.52
2023-05-07T09:57:14.177Z,10.85
2023-05-07T09:59:44.013Z,10.88
2023-05-07T10:02:11.676Z,9.80
2023-05-07T10:04:38.916Z,9.93
2023-05-07T10:07:10.659Z,10.48
2023-05-07T10:09:39.658Z,10.73
2023-05-07T10:12:08.061Z,10.07
2023-05-07T10:14:36.591Z,8.82
2023-05-07T10:17:04.020Z,7.93
2023-05-07T10:19:31.651Z,9.55
2023-05-07T10:22:03.801Z,9.68
2023-05-07T10:24:34.905Z,8.93
2023-05-07T10:27:05.218Z,9.18
2023-05-07T10:29:41.176Z,8.60
2023-05-07T10:32:16.137Z,8.52
2023-05-07T10:34:45.592Z,8.68
2023-05-07T10:37:15.186Z,13.00
2023-05-07T10:39:42.499Z,9.30
2023-05-07T10:42:10.521Z,9.40
2023-05-07T10:44:38.443Z,9.15
2023-05-07T10:47:07.042Z,8.93
2023-05-07T10:49:34.336Z,9.70
2023-05-07T10:52:27.812Z,101.88
2023-05-07T10:55:13.877Z,10.88
2023-05-07T10:57:41.113Z,16.13
2023-05-07T11:00:16.852Z,31.30
2023-05-07T11:03:03.931Z,36.00
2023-05-07T11:05:32.726Z,16.30
2023-05-07T11:08:05.343Z,10.48
2023-05-07T11:10:52.819Z,10.50
2023-05-07T11:13:20.716Z,10.40
2023-05-07T11:15:49.279Z,7.55
2023-05-07T11:18:21.537Z,8.43
2023-05-07T11:20:51.663Z,8.70
2023-05-07T11:23:34.334Z,8.75
2023-05-07T11:26:06.018Z,7.75
2023-05-07T11:28:33.593Z,7.88
2023-05-07T11:31:01.108Z,7.93
2023-05-07T11:33:28.856Z,8.13
2023-05-07T11:35:56.923Z,7.30
2023-05-07T11:38:24.135Z,7.20
2023-05-07T11:40:55.153Z,9.32
2023-05-07T11:43:22.791Z,8.32
2023-05-07T11:45:50.585Z,11.48
2023-05-07T11:48:18.326Z,10.02
2023-05-07T11:50:52.775Z,7.80
2023-05-07T11:53:21.011Z,8.88
2023-05-07T11:55:48.369Z,8.55
2023-05-07T11:58:21.855Z,8.95
2023-05-07T12:00:53.057Z,8.30
2023-05-07T12:03:20.696Z,7.70
2023-05-07T12:05:48.494Z,10.82
2023-05-07T12:08:17.075Z,9.35
2023-05-07T12:10:44.902Z,8.45
2023-05-07T12:13:22.636Z,7.78
2023-05-07T12:15:53.505Z,7.25
2023-05-07T12:18:21.697Z,8.30
2023-05-07T12:20:49.373Z,7.00
2023-05-07T12:23:16.809Z,8.20
2023-05-07T12:25:48.007Z,7.63
2023-05-07T12:28:18.810Z,7.22
2023-05-07T12:30:47.255Z,7.82
2023-05-07T12:33:18.300Z,6.95
2023-05-07T12:35:45.877Z,7.60
2023-05-07T12:38:13.883Z,7.45
2023-05-07T12:40:43.296Z,7.00
2023-05-07T12:43:18.269Z,6.88
2023-05-07T12:45:45.880Z,8.02
2023-05-07T12:48:13.302Z,7.47
2023-05-07T12:50:42.554Z,7.75
2023-05-07T12:53:10.357Z,7.07
2023-05-07T12:55:45.024Z,7.65
2023-05-07T12:58:20.627Z,7.40
2023-05-07T13:00:50.829Z,6.90
2023-05-07T13:03:27.890Z,7.15
2023-05-07T13:05:58.609Z,7.07
2023-05-07T13:08:30.793Z,6.68
2023-05-07T13:10:59.385Z,7.32
2023-05-07T13:13:28.367Z,7.00
2023-05-07T13:15:56.856Z,7.05
2023-05-07T13:18:27.150Z,7.25
2023-05-07T13:20:54.984Z,6.68
2023-05-07T13:23:22.494Z,7.20
2023-05-07T13:25:50.882Z,6.85
2023-05-07T13:28:18.186Z,6.32
2023-05-07T13:30:45.504Z,6.28
2023-05-07T13:33:12.939Z,6.18
2023-05-07T13:35:40.391Z,5.90
2023-05-07T13:38:07.653Z,5.40
2023-05-07T13:40:34.824Z,5.80
2023-05-07T13:43:05.165Z,5.93
2023-05-07T13:45:32.383Z,5.93
2023-05-07T13:48:00.070Z,6.05
2023-05-07T13:50:28.239Z,5.68
2023-05-07T13:52:55.684Z,5.47
2023-05-07T13:55:24.482Z,5.43
2023-05-07T13:57:57.297Z,4.90
2023-05-07T14:00:25.141Z,5.33
2023-05-07T14:02:55.061Z,5.03
2023-05-07T14:05:24.204Z,5.03
2023-05-07T14:07:54.514Z,5.22
2023-05-07T14:10:21.861Z,5.22
2023-05-07T14:12:49.130Z,5.15
2023-05-07T14:15:17.145Z,4.50
2023-05-07T14:17:44.811Z,3.70
2023-05-07T14:20:14.832Z,4.60
2023-05-07T14:22:42.348Z,4.15
2023-05-07T14:25:10.995Z,4.20
2023-05-07T14:27:38.348Z,4.07
2023-05-07T14:30:05.855Z,4.40
2023-05-07T14:32:34.055Z,4.20
2023-05-07T14:35:01.276Z,4.30
2023-05-07T14:37:29.182Z,3.75
2023-05-07T14:39:56.362Z,3.53
2023-05-07T14:42:23.520Z,3.55
2023-05-07T14:44:50.761Z,3.40
2023-05-07T14:47:19.924Z,3.45
2023-05-07T14:49:47.339Z,3.22
2023-05-07T14:52:14.561Z,3.20
2023-05-07T14:54:41.827Z,3.45
2023-05-07T14:57:10.998Z,4.10
2023-05-07T14:59:39.699Z,3.60
2023-05-07T15:02:09.258Z,3.90
2023-05-07T15:04:36.702Z,3.60
2023-05-07T15:07:03.877Z,3.50
2023-05-07T15:09:31.701Z,4.07
2023-05-07T15:11:58.899Z,3.28
2023-05-07T15:14:26.343Z,3.83
2023-05-07T15:16:53.597Z,3.92
2023-05-07T15:19:21.148Z,3.40
2023-05-07T15:21:48.304Z,3.30
2023-05-07T15:24:15.491Z,3.67
2023-05-07T15:26:43.273Z,3.55
2023-05-07T15:29:11.337Z,3.10
2023-05-07T15:31:41.777Z,2.92
2023-05-07T15:34:09.064Z,3.58
2023-05-07T15:36:36.278Z,3.08
2023-05-07T15:39:05.247Z,2.50
2023-05-07T15:41:32.389Z,3.05
2023-05-07T15:44:00.066Z,3.33
2023-05-07T15:46:27.763Z,3.10
2023-05-07T15:48:55.403Z,3.42
2023-05-07T15:51:23.431Z,3.40
2023-05-07T15:53:52.160Z,3.30
2023-05-07T15:56:19.367Z,3.00
2023-05-07T15:58:47.847Z,3.05
2023-05-07T16:01:15.214Z,3.00
2023-05-07T16:03:43.055Z,2.83
2023-05-07T16:06:12.613Z,3.15
2023-05-07T16:08:44.154Z,2.70
2023-05-07T16:11:12.297Z,2.60
2023-05-07T16:13:39.520Z,3.08
2023-05-07T16:16:06.859Z,2.60
2023-05-07T16:18:34.081Z,3.05
2023-05-07T16:21:02.833Z,2.53
2023-05-07T16:23:31.960Z,2.53
2023-05-07T16:25:59.547Z,2.55
2023-05-07T16:28:26.773Z,2.63
2023-05-07T16:30:54.024Z,2.67
2023-05-07T16:33:21.306Z,3.00
2023-05-07T16:35:54.887Z,2.97
2023-05-07T16:40:49.204Z,2.53
2023-05-07T16:43:16.370Z,2.80
2023-05-07T16:45:43.508Z,3.25
2023-05-07T16:48:10.899Z,3.10
2023-05-07T16:50:38.435Z,2.85
2023-05-07T16:53:07.244Z,3.17
2023-05-07T16:55:38.756Z,3.53
2023-05-07T16:58:08.198Z,3.00
2023-05-07T17:00:49.068Z,3.33
2023-05-07T17:03:18.129Z,3.70
2023-05-07T17:05:46.098Z,3.60
2023-05-07T17:08:14.171Z,3.67
2023-05-07T17:10:41.961Z,3.50
2023-05-07T17:13:09.168Z,4.32
2023-05-07T17:15:36.704Z,4.30
2023-05-07T17:18:05.125Z,3.92
2023-05-07T17:20:32.377Z,4.07
2023-05-07T17:22:59.544Z,4.13
2023-05-07T17:25:26.797Z,4.47
2023-05-07T17:27:55.967Z,4.60
2023-05-07T17:30:23.131Z,4.70
2023-05-07T17:32:51.018Z,4.70
2023-05-07T17:35:18.429Z,4.63
2023-05-07T17:37:52.599Z,4.90
2023-05-07T17:40:21.113Z,5.35
2023-05-07T17:42:48.789Z,4.78
2023-05-07T17:45:17.473Z,6.00
2023-05-07T17:47:44.697Z,5.57
2023-05-07T17:50:12.215Z,4.63
2023-05-07T17:52:39.951Z,4.28
2023-05-07T17:55:07.548Z,5.20
2023-05-07T17:57:36.961Z,5.53
2023-05-07T18:00:07.760Z,5.07
2023-05-07T18:02:35.355Z,5.28
2023-05-07T18:05:02.592Z,4.40
2023-05-07T18:07:29.827Z,5.60
2023-05-07T18:09:56.948Z,5.80
2023-05-07T18:12:26.208Z,5.25
2023-05-07T18:14:54.995Z,5.63
2023-05-07T18:17:24.323Z,5.30
2023-05-07T18:19:53.994Z,5.40
2023-05-07T18:22:22.219Z,5.50
2023-05-07T18:24:49.491Z,5.75
2023-05-07T18:27:16.860Z,5.85
2023-05-07T18:29:44.036Z,6.07
2023-05-07T18:32:11.901Z,5.85
2023-05-07T18:34:39.203Z,5.55
2023-05-07T18:37:06.536Z,5.78
2023-05-07T18:39:33.766Z,6.53
2023-05-07T18:42:00.991Z,6.40
2023-05-07T18:44:28.468Z,5.68
2023-05-07T18:46:55.766Z,5.70
2023-05-07T18:49:22.995Z,6.10
2023-05-07T18:51:50.387Z,6.07
2023-05-07T18:54:17.548Z,5.93
2023-05-07T18:56:44.682Z,5.93
2023-05-07T18:59:12.148Z,6.60
2023-05-07T19:01:39.420Z,6.13
2023-05-07T19:04:06.690Z,6.40
2023-05-07T19:06:34.180Z,6.43
2023-05-07T19:09:01.684Z,6.53
2023-05-07T19:11:28.862Z,6.20
2023-05-07T19:13:56.015Z,6.30
2023-05-07T19:16:23.275Z,6.47
2023-05-07T19:18:50.651Z,6.60
2023-05-07T19:21:17.968Z,6.40
2023-05-07T19:23:46.187Z,5.60
2023-05-07T19:26:13.492Z,5.32
2023-05-07T19:28:45.450Z,5.82
2023-05-07T19:31:19.622Z,5.63
2023-05-07T19:33:47.090Z,6.68
2023-05-07T19:36:14.619Z,6.22
2023-05-07T19:38:41.882Z,6.72
2023-05-07T19:41:09.928Z,6.50
2023-05-07T19:43:38.591Z,6.32
2023-05-07T19:46:06.713Z,6.68
2023-05-07T19:48:34.124Z,6.63
2023-05-07T19:51:01.525Z,6.40
2023-05-07T19:53:30.447Z,7.00
2023-05-07T19:56:03.214Z,7.35
2023-05-07T19:58:30.622Z,6.93
2023-05-07T20:00:58.085Z,7.05
2023-05-07T20:03:25.791Z,7.22
2023-05-07T20:05:53.163Z,6.85
2023-05-07T20:08:20.560Z,7.57
2023-05-07T20:10:48.731Z,7.70
2023-05-07T20:13:16.468Z,7.03
2023-05-07T20:15:44.046Z,7.10
2023-05-07T20:18:12.003Z,7.38
2023-05-07T20:20:39.152Z,8.23
2023-05-07T20:23:06.635Z,7.40
2023-05-07T20:25:34.099Z,8.18
2023-05-07T20:28:03.885Z,7.22
2023-05-07T20:30:31.503Z,7.93
2023-05-07T20:32:59.268Z,8.27
2023-05-07T20:35:26.577Z,8.57
2023-05-07T20:37:53.856Z,8.95
2023-05-07T20:40:21.189Z,9.05
2023-05-07T20:42:48.642Z,8.32
2023-05-07T20:45:16.287Z,8.00
2023-05-07T20:47:43.884Z,8.77
2023-05-07T20:50:11.753Z,9.00
2023-05-07T20:52:40.056Z,8.82
2023-05-07T20:55:07.555Z,7.95
2023-05-07T20:57:34.966Z,8.77
2023-05-07T21:00:11.932Z,9.20
2023-05-07T21:02:39.384Z,8.70
2023-05-07T21:05:06.760Z,8.75
2023-05-07T21:07:34.226Z,7.90
2023-05-07T21:10:01.385Z,9.05
2023-05-07T21:12:28.868Z,9.07
2023-05-07T21:14:57.916Z,9.35
2023-05-07T21:17:25.440Z,9.27
2023-05-07T21:19:52.640Z,8.43
2023-05-07T21:22:19.796Z,8.25
2023-05-07T21:24:47.005Z,8.80
2023-05-07T21:27:14.247Z,8.18
2023-05-07T21:29:41.673Z,9.02
2023-05-07T21:32:09.078Z,8.05
2023-05-07T21:34:36.223Z,7.15
2023-05-07T21:37:04.037Z,8.63
2023-05-07T21:39:31.482Z,8.82
2023-05-07T21:41:58.653Z,8.43
2023-05-07T21:44:27.099Z,8.48
2023-05-07T21:46:54.331Z,8.30
2023-05-07T21:49:21.624Z,9.38
2023-05-07T21:51:49.052Z,8.75
2023-05-07T21:54:16.262Z,8.93
2023-05-07T21:56:43.729Z,8.48
2023-05-07T21:59:10.950Z,8.70
2023-05-07T22:01:38.161Z,9.35
2023-05-07T22:04:06.085Z,8.82
2023-05-07T22:06:33.622Z,9.40
2023-05-07T22:09:01.001Z,9.23
2023-05-07T22:11:28.177Z,9.75
2023-05-07T22:13:55.523Z,10.05
2023-05-07T22:16:22.721Z,10.15
2023-05-07T22:18:57.559Z,10.13
2023-05-07T22:21:25.135Z,9.10
2023-05-07T22:23:52.326Z,10.05
2023-05-07T22:26:19.652Z,9.50
2023-05-07T22:28:46.874Z,10.45
2023-05-07T22:31:14.094Z,9.65
2023-05-07T22:33:41.856Z,10.35
2023-05-07T22:36:09.174Z,9.90
2023-05-07T22:38:36.321Z,10.15
2023-05-07T22:41:03.653Z,9.95
2023-05-07T22:43:31.078Z,9.32
2023-05-07T22:46:00.198Z,9.88
2023-05-07T22:48:27.717Z,11.15
2023-05-07T22:50:55.102Z,10.02
2023-05-07T22:53:22.284Z,10.07
2023-05-07T22:55:49.464Z,10.50
2023-05-07T22:58:16.731Z,9.88
2023-05-07T23:00:44.030Z,10.90
2023-05-07T23:03:11.975Z,10.95
2023-05-07T23:05:40.006Z,10.57
2023-05-07T23:08:07.173Z,10.43
2023-05-07T23:10:35.323Z,10.13
2023-05-07T23:13:02.873Z,10.88
2023-05-07T23:15:30.211Z,11.82
2023-05-07T23:17:57.518Z,11.15
2023-05-07T23:20:24.711Z,10.75
2023-05-07T23:22:53.294Z,11.02
2023-05-07T23:25:20.597Z,11.38
2023-05-07T23:27:49.855Z,10.55
2023-05-07T23:30:17.194Z,10.07
2023-05-07T23:32:44.448Z,11.13
2023-05-07T23:35:11.619Z,11.00
2023-05-07T23:37:39.225Z,10.88
2023-05-07T23:40:06.842Z,11.25
2023-05-07T23:42:34.050Z,11.70
2023-05-07T23:45:01.182Z,11.55
2023-05-07T23:47:28.470Z,10.77
2023-05-07T23:49:55.688Z,10.55
2023-05-07T23:52:22.951Z,10.75
2023-05-07T23:54:50.136Z,9.90
2023-05-07T23:57:17.354Z,10.57
2023-05-07T23:59:44.581Z,10.23
